Time;durP1;ratioP1;P1;durP2;ratioP2;P2;SDS_P1;SDS_P2;PMS_P1;PMS_P2;Temp;Humidity;BMP_temperature;BMP_pressure;BME280_temperature;BME280_humidity;BME280_pressure;Samples;Min_cycle;Max_cycle;Signal;HPM_P1;HPM_P2
2022/09/17 00:00:36;;;;;;;20.08;3.58;;;13.10;99.90;;;;;;5126690;27;20035;-78
2022/09/17 00:03:01;;;;;;;16.48;3.05;;;12.80;99.90;;;;;;5115152;28;20116;-78
2022/09/17 00:05:27;;;;;;;14.13;2.90;;;13.00;99.90;;;;;;5115432;27;20139;-78
2022/09/17 00:07:52;;;;;;;15.52;3.20;;;12.90;99.90;;;;;;5112277;27;20065;-78
2022/09/17 00:10:20;;;;;;;12.88;3.13;;;12.80;99.90;;;;;;5115718;27;20043;-78
2022/09/17 00:12:46;;;;;;;12.40;3.33;;;12.90;99.90;;;;;;5134870;27;20051;-78
2022/09/17 00:15:12;;;;;;;12.13;2.92;;;12.90;99.90;;;;;;5137097;27;20039;-78
2022/09/17 00:17:38;;;;;;;13.95;3.05;;;12.90;99.90;;;;;;5128911;27;20136;-78
2022/09/17 00:20:06;;;;;;;14.65;2.78;;;12.90;99.90;;;;;;5126777;27;20070;-78
2022/09/17 00:22:32;;;;;;;12.68;2.88;;;12.90;99.90;;;;;;5135915;27;20049;-79
2022/09/17 00:24:58;;;;;;;17.30;3.13;;;12.90;99.90;;;;;;5135535;27;20126;-78
2022/09/17 00:27:23;;;;;;;12.43;2.53;;;12.90;99.90;;;;;;5133067;27;20031;-79
2022/09/17 00:29:49;;;;;;;16.17;3.08;;;12.80;99.90;;;;;;5136176;27;20047;-78
2022/09/17 00:32:14;;;;;;;13.25;2.70;;;13.20;99.90;;;;;;5114309;27;20048;-79
2022/09/17 00:34:42;;;;;;;13.85;2.50;;;12.40;99.90;;;;;;5120963;27;20376;-78
2022/09/17 00:37:07;;;;;;;11.20;2.38;;;12.30;99.90;;;;;;5115595;27;20063;-78
2022/09/17 00:39:33;;;;;;;17.55;2.97;;;12.20;99.90;;;;;;5115749;28;20036;-78
2022/09/17 00:41:59;;;;;;;12.75;3.00;;;12.10;99.90;;;;;;5115334;28;20038;-78
2022/09/17 00:44:46;;;;;;;13.93;2.95;;;12.60;99.90;;;;;;5115867;28;20403;-78
2022/09/17 00:47:37;;;;;;;15.32;3.25;;;12.10;99.90;;;;;;5122667;27;20470;-78
2022/09/17 00:50:28;;;;;;;11.00;2.55;;;12.00;99.90;;;;;;5123953;27;20044;-78
2022/09/17 00:53:16;;;;;;;16.98;3.30;;;12.00;99.90;;;;;;5095946;27;20131;-78
2022/09/17 00:55:46;;;;;;;21.50;3.63;;;12.10;99.90;;;;;;5110451;27;20047;-79
2022/09/17 00:58:15;;;;;;;16.27;2.88;;;12.00;99.90;;;;;;5091967;28;20047;-78
2022/09/17 01:00:42;;;;;;;15.80;3.25;;;12.80;99.90;;;;;;5116289;27;20027;-78
2022/09/17 01:03:08;;;;;;;17.35;3.35;;;12.00;99.90;;;;;;5115818;27;20123;-78
2022/09/17 01:06:00;;;;;;;17.38;3.25;;;12.00;99.90;;;;;;5115208;27;20097;-78
2022/09/17 01:08:48;;;;;;;17.40;3.45;;;12.00;99.90;;;;;;5112292;27;20047;-78
2022/09/17 01:11:31;;;;;;;17.73;3.28;;;11.90;99.90;;;;;;5094484;28;20054;-78
2022/09/17 01:14:31;;;;;;;18.42;3.33;;;11.80;99.90;;;;;;5115984;27;20399;-78
2022/09/17 01:17:05;;;;;;;17.80;3.60;;;11.80;99.90;;;;;;5112945;27;20062;-78
2022/09/17 01:19:30;;;;;;;16.35;4.00;;;11.70;99.90;;;;;;5099269;27;20210;-79
2022/09/17 01:22:02;;;;;;;20.25;3.50;;;11.80;99.90;;;;;;5114631;27;20268;-78
2022/09/17 01:24:33;;;;;;;19.17;3.78;;;11.80;99.90;;;;;;5114585;27;20146;-78
2022/09/17 01:27:10;;;;;;;24.30;3.42;;;11.80;99.90;;;;;;5115838;27;20040;-78
2022/09/17 01:29:57;;;;;;;18.88;3.25;;;11.90;99.90;;;;;;5133739;27;20398;-78
2022/09/17 01:32:29;;;;;;;21.67;3.25;;;11.70;99.90;;;;;;5142248;27;20051;-78
2022/09/17 01:35:00;;;;;;;16.00;2.95;;;11.70;99.90;;;;;;5136759;27;20345;-78
2022/09/17 01:37:26;;;;;;;22.05;3.08;;;11.70;99.90;;;;;;5123445;27;20440;-78
2022/09/17 01:40:12;;;;;;;17.13;3.13;;;11.80;99.90;;;;;;5135101;27;20050;-78
2022/09/17 01:42:50;;;;;;;15.55;3.00;;;12.40;99.90;;;;;;5135676;27;20050;-78
2022/09/17 01:45:46;;;;;;;17.73;3.47;;;12.10;99.90;;;;;;5154763;27;20103;-78
2022/09/17 01:48:17;;;;;;;19.30;3.20;;;11.80;99.90;;;;;;5139659;27;20395;-78
2022/09/17 01:50:58;;;;;;;19.08;3.70;;;12.00;99.90;;;;;;5134844;27;20277;-78
2022/09/17 01:53:29;;;;;;;17.08;3.42;;;11.90;99.90;;;;;;5167415;27;20046;-78
2022/09/17 01:55:58;;;;;;;18.55;3.58;;;12.10;99.90;;;;;;5133968;27;20495;-78
2022/09/17 01:58:32;;;;;;;20.38;3.00;;;11.90;99.90;;;;;;5146881;27;20156;-78
2022/09/17 02:01:02;;;;;;;18.73;3.83;;;12.00;99.90;;;;;;5152431;27;20094;-78
2022/09/17 02:03:35;;;;;;;19.13;3.30;;;12.00;99.90;;;;;;5151139;27;20392;-78
2022/09/17 02:06:15;;;;;;;17.65;2.80;;;12.30;99.90;;;;;;5146100;27;20441;-78
2022/09/17 02:08:50;;;;;;;17.30;3.13;;;12.00;99.90;;;;;;5114509;28;20043;-78
2022/09/17 02:11:16;;;;;;;17.77;3.13;;;12.00;99.90;;;;;;5114709;27;20438;-78
2022/09/17 02:13:57;;;;;;;20.55;3.33;;;12.00;99.90;;;;;;5133278;27;20047;-78
2022/09/17 02:16:35;;;;;;;16.90;3.22;;;12.00;99.90;;;;;;5150459;27;20420;-78
2022/09/17 02:19:25;;;;;;;14.90;3.38;;;11.90;99.90;;;;;;5154924;27;20517;-78
2022/09/17 02:22:00;;;;;;;23.30;3.47;;;11.90;99.90;;;;;;5148349;27;20114;-78
2022/09/17 02:24:37;;;;;;;16.30;3.35;;;12.00;99.90;;;;;;5134523;27;20047;-78
2022/09/17 02:27:13;;;;;;;16.17;3.10;;;12.00;99.90;;;;;;5135393;27;20045;-78
2022/09/17 02:29:42;;;;;;;15.02;3.08;;;12.10;99.90;;;;;;5166242;27;20073;-78
2022/09/17 02:32:08;;;;;;;12.98;2.95;;;12.10;99.90;;;;;;5140643;27;20055;-78
2022/09/17 02:34:34;;;;;;;18.67;3.08;;;12.10;99.90;;;;;;5136313;27;20467;-78
2022/09/17 02:37:00;;;;;;;12.52;2.53;;;12.10;99.90;;;;;;5154301;27;20035;-78
2022/09/17 02:39:27;;;;;;;15.88;3.17;;;12.20;99.90;;;;;;5168667;27;20102;-78
2022/09/17 02:42:16;;;;;;;16.08;3.08;;;12.10;99.90;;;;;;5174473;27;20083;-78
2022/09/17 02:44:42;;;;;;;14.85;2.97;;;12.10;99.90;;;;;;5140039;27;20046;-78
2022/09/17 02:48:04;;;;;;;18.00;3.20;;;13.10;99.90;;;;;;5155728;27;20144;-78
2022/09/17 02:50:53;;;;;;;13.80;2.70;;;12.10;99.90;;;;;;5030365;28;20075;-78
2022/09/17 02:53:47;;;;;;;14.73;2.80;;;12.30;99.90;;;;;;5056729;28;20057;-79
2022/09/17 02:56:47;;;;;;;14.82;2.92;;;12.20;99.90;;;;;;5127513;27;20352;-78
2022/09/17 02:59:33;;;;;;;19.48;3.60;;;12.10;99.90;;;;;;5112438;27;20046;-78
2022/09/17 03:02:11;;;;;;;15.50;2.90;;;12.10;99.90;;;;;;5149654;27;20046;-78
2022/09/17 03:04:38;;;;;;;15.88;3.47;;;12.00;99.90;;;;;;5174463;27;20117;-78
2022/09/17 03:07:07;;;;;;;16.05;3.03;;;12.00;99.90;;;;;;5175101;27;20038;-79
2022/09/17 03:09:34;;;;;;;21.88;2.90;;;12.00;99.90;;;;;;5156666;27;20122;-79
2022/09/17 03:12:01;;;;;;;17.63;2.85;;;12.00;99.90;;;;;;5141555;27;20043;-79
2022/09/17 03:14:27;;;;;;;12.68;2.70;;;11.90;99.90;;;;;;5138137;27;20053;-79
2022/09/17 03:16:52;;;;;;;14.50;2.80;;;11.90;99.90;;;;;;5178957;27;20031;-79
2022/09/17 03:19:18;;;;;;;17.25;3.08;;;11.90;99.90;;;;;;5178036;27;20049;-79
2022/09/17 03:21:44;;;;;;;19.90;3.00;;;11.80;99.90;;;;;;5162604;27;20034;-78
2022/09/17 03:24:10;;;;;;;17.77;3.13;;;11.90;99.90;;;;;;5143280;27;20042;-78
2022/09/17 03:26:36;;;;;;;13.68;2.85;;;11.90;99.90;;;;;;5178790;27;20053;-78
2022/09/17 03:29:03;;;;;;;18.80;2.95;;;12.90;99.90;;;;;;5177146;27;20394;-78
2022/09/17 03:31:28;;;;;;;10.95;2.38;;;11.90;99.90;;;;;;5178566;27;20129;-78
2022/09/17 03:33:54;;;;;;;18.63;2.83;;;12.70;99.90;;;;;;5178667;27;20082;-78
2022/09/17 03:36:19;;;;;;;15.73;3.05;;;12.10;99.90;;;;;;5141464;27;20139;-78
2022/09/17 03:38:45;;;;;;;22.48;3.45;;;12.10;99.90;;;;;;5158452;27;20031;-78
2022/09/17 03:41:12;;;;;;;16.15;2.97;;;12.20;99.90;;;;;;5122290;27;20053;-78
2022/09/17 03:43:38;;;;;;;14.65;2.50;;;12.40;99.90;;;;;;5162004;27;20063;-78
2022/09/17 03:46:05;;;;;;;10.27;2.45;;;12.10;99.90;;;;;;5133557;27;20158;-78
2022/09/17 03:48:34;;;;;;;13.02;2.72;;;12.10;99.90;;;;;;5138320;27;20050;-79
2022/09/17 03:51:00;;;;;;;12.65;2.97;;;12.10;99.90;;;;;;5139394;27;20137;-79
2022/09/17 03:53:25;;;;;;;18.98;3.33;;;12.10;99.90;;;;;;5126639;27;20382;-78
2022/09/17 03:55:51;;;;;;;15.13;3.22;;;12.00;99.90;;;;;;5162023;27;20039;-78
2022/09/17 03:58:17;;;;;;;15.55;2.72;;;12.00;99.90;;;;;;5158048;27;20129;-79
2022/09/17 04:00:43;;;;;;;12.65;2.70;;;11.90;99.90;;;;;;5153005;27;20049;-78
2022/09/17 04:03:09;;;;;;;15.25;2.83;;;11.90;99.90;;;;;;5157953;27;20053;-78
2022/09/17 04:05:34;;;;;;;13.48;2.70;;;11.80;99.90;;;;;;5177804;27;20038;-78
2022/09/17 04:08:00;;;;;;;17.00;3.13;;;11.80;99.90;;;;;;5160961;27;20125;-78
2022/09/17 04:10:26;;;;;;;18.20;2.70;;;11.80;99.90;;;;;;5157010;27;20042;-78
2022/09/17 04:12:51;;;;;;;15.93;3.17;;;11.90;99.90;;;;;;5159798;27;20053;-78
2022/09/17 04:15:17;;;;;;;12.38;2.88;;;11.80;99.90;;;;;;5176558;27;20034;-78
2022/09/17 04:17:43;;;;;;;15.98;2.80;;;12.40;99.90;;;;;;5171487;27;20121;-78
2022/09/17 04:20:08;;;;;;;15.95;2.50;;;11.80;99.90;;;;;;5138808;27;20045;-78
2022/09/17 04:22:34;;;;;;;20.15;2.70;;;11.80;99.90;;;;;;5169564;27;20118;-78
2022/09/17 04:25:00;;;;;;;18.92;3.08;;;11.70;99.90;;;;;;5150497;27;20101;-78
2022/09/17 04:27:25;;;;;;;15.10;3.03;;;11.70;99.90;;;;;;5166966;27;20152;-78
2022/09/17 04:29:51;;;;;;;11.07;2.33;;;11.70;99.90;;;;;;5159721;27;20486;-78
2022/09/17 04:32:16;;;;;;;12.95;2.42;;;11.70;99.90;;;;;;5175666;27;20099;-78
2022/09/17 04:34:42;;;;;;;15.98;2.80;;;11.70;99.90;;;;;;5164156;27;20121;-78
2022/09/17 04:37:09;;;;;;;13.60;2.97;;;11.70;99.90;;;;;;5138124;27;20089;-78
2022/09/17 04:39:34;;;;;;;11.35;2.60;;;11.70;99.90;;;;;;5157753;27;20392;-78
2022/09/17 04:42:00;;;;;;;14.93;2.45;;;11.70;99.90;;;;;;5157487;27;20030;-78
2022/09/17 04:44:25;;;;;;;13.63;2.50;;;12.30;99.90;;;;;;5145673;27;20046;-79
2022/09/17 04:46:51;;;;;;;10.32;2.70;;;11.70;99.90;;;;;;5177371;27;20069;-78
2022/09/17 04:49:17;;;;;;;13.45;2.55;;;11.60;99.90;;;;;;5159121;27;20490;-78
2022/09/17 04:51:42;;;;;;;19.20;2.97;;;11.70;99.90;;;;;;5160798;27;20117;-78
2022/09/17 04:54:08;;;;;;;14.80;2.55;;;11.60;99.90;;;;;;5152732;27;20052;-78
2022/09/17 04:56:33;;;;;;;15.70;2.28;;;11.60;99.90;;;;;;5175679;27;20062;-78
2022/09/17 04:58:59;;;;;;;19.60;3.25;;;11.50;99.90;;;;;;5177234;27;20038;-78
2022/09/17 05:01:25;;;;;;;15.98;3.10;;;11.50;99.90;;;;;;5166927;27;20122;-79
2022/09/17 05:03:50;;;;;;;13.13;2.75;;;12.30;99.90;;;;;;5156732;27;20165;-78
2022/09/17 05:06:16;;;;;;;17.40;2.58;;;11.50;99.90;;;;;;5157491;27;20046;-78
2022/09/17 05:08:42;;;;;;;11.60;2.70;;;11.50;99.90;;;;;;5164793;27;20026;-78
2022/09/17 05:11:07;;;;;;;17.63;3.47;;;11.40;99.90;;;;;;5138584;27;20061;-79
2022/09/17 05:13:33;;;;;;;16.77;3.08;;;11.50;99.90;;;;;;5172373;27;20042;-79
2022/09/17 05:15:58;;;;;;;12.80;2.42;;;11.50;99.90;;;;;;5161961;27;20053;-79
2022/09/17 05:18:25;;;;;;;14.48;2.75;;;11.60;99.90;;;;;;5154020;27;20035;-79
2022/09/17 05:20:51;;;;;;;10.93;2.50;;;12.00;99.90;;;;;;5134982;27;20487;-79
2022/09/17 05:23:16;;;;;;;13.18;2.92;;;11.60;99.90;;;;;;5138350;27;20136;-79
2022/09/17 05:25:42;;;;;;;16.58;3.15;;;12.30;99.90;;;;;;5177413;27;20049;-79
2022/09/17 05:28:08;;;;;;;13.63;2.60;;;12.40;99.90;;;;;;5177940;27;20042;-78
2022/09/17 05:30:33;;;;;;;14.02;3.00;;;11.90;99.90;;;;;;5176682;27;20105;-77
2022/09/17 05:33:01;;;;;;;16.17;2.40;;;11.80;99.90;;;;;;5157908;27;20058;-78
2022/09/17 05:35:28;;;;;;;13.00;3.03;;;11.90;99.90;;;;;;5177022;27;20399;-79
2022/09/17 05:38:01;;;;;;;19.52;2.80;;;12.30;99.90;;;;;;5147020;27;20390;-78
2022/09/17 05:40:27;;;;;;;12.48;2.92;;;12.00;99.90;;;;;;5135599;27;20043;-79
2022/09/17 05:43:05;;;;;;;13.13;2.80;;;12.10;99.90;;;;;;5135222;27;20403;-78
2022/09/17 05:45:36;;;;;;;12.40;2.33;;;12.20;99.90;;;;;;5136265;27;20121;-78
2022/09/17 05:48:04;;;;;;;11.43;2.40;;;12.60;99.90;;;;;;5137287;27;20042;-79
2022/09/17 05:50:30;;;;;;;10.65;2.20;;;12.30;99.90;;;;;;5169306;27;20082;-79
2022/09/17 05:53:20;;;;;;;10.23;2.35;;;12.30;99.90;;;;;;5155489;27;20038;-79
2022/09/17 05:55:45;;;;;;;12.25;2.45;;;12.30;99.90;;;;;;5154009;27;20042;-79
2022/09/17 05:58:17;;;;;;;16.25;3.35;;;13.10;99.90;;;;;;5155175;27;20435;-78
2022/09/17 06:00:46;;;;;;;20.45;3.65;;;12.30;99.90;;;;;;5154877;27;20035;-78
2022/09/17 06:03:14;;;;;;;14.18;2.90;;;12.70;99.90;;;;;;5146349;27;20039;-78
2022/09/17 06:05:41;;;;;;;12.38;2.90;;;12.10;99.90;;;;;;5137507;27;20095;-79
2022/09/17 06:08:07;;;;;;;9.30;2.58;;;12.00;99.90;;;;;;5136093;27;20066;-79
2022/09/17 06:10:36;;;;;;;9.93;1.90;;;11.80;99.90;;;;;;5138521;27;20103;-79
2022/09/17 06:13:01;;;;;;;8.30;2.10;;;11.70;99.90;;;;;;5134691;27;20049;-79
2022/09/17 06:15:27;;;;;;;10.27;2.22;;;11.50;99.90;;;;;;5150403;27;20043;-78
2022/09/17 06:17:53;;;;;;;10.93;1.85;;;11.30;99.90;;;;;;5114982;27;20502;-78
2022/09/17 06:20:19;;;;;;;10.80;2.10;;;11.20;99.90;;;;;;5136233;27;20483;-79
2022/09/17 06:22:45;;;;;;;12.65;2.65;;;11.80;99.90;;;;;;5174005;27;20045;-78
2022/09/17 06:25:11;;;;;;;10.50;2.20;;;11.10;99.90;;;;;;5176095;27;20449;-78
2022/09/17 06:27:37;;;;;;;11.38;2.40;;;11.10;99.90;;;;;;5175374;27;20136;-79
2022/09/17 06:30:03;;;;;;;10.63;2.33;;;11.10;99.90;;;;;;5175655;27;20049;-78
2022/09/17 06:32:29;;;;;;;12.35;2.20;;;11.10;99.90;;;;;;5172944;27;20095;-78
2022/09/17 06:34:54;;;;;;;12.70;2.10;;;11.20;99.90;;;;;;5170422;27;20039;-79
2022/09/17 06:37:26;;;;;;;11.98;2.30;;;11.30;99.90;;;;;;5155042;27;20046;-78
2022/09/17 06:39:51;;;;;;;10.50;2.30;;;11.40;99.90;;;;;;5154956;27;20448;-79
2022/09/17 06:42:17;;;;;;;9.52;2.25;;;11.50;99.90;;;;;;5137045;27;20073;-79
2022/09/17 06:44:42;;;;;;;11.25;2.30;;;11.70;99.90;;;;;;5155023;27;20121;-78
2022/09/17 06:47:08;;;;;;;8.40;2.08;;;12.00;99.90;;;;;;5154415;27;20510;-78
2022/09/17 06:49:34;;;;;;;9.90;2.15;;;12.50;99.90;;;;;;5153900;27;20043;-78
2022/09/17 06:51:59;;;;;;;10.60;2.50;;;12.70;99.90;;;;;;5140559;27;20042;-79
2022/09/17 06:54:25;;;;;;;9.18;2.13;;;13.00;99.90;;;;;;5152363;27;20043;-78
2022/09/17 06:56:50;;;;;;;6.75;1.80;;;14.20;99.90;;;;;;5138439;27;20075;-79
2022/09/17 06:59:17;;;;;;;11.20;2.25;;;14.50;99.90;;;;;;5153817;27;20042;-78
2022/09/17 07:01:43;;;;;;;9.43;2.35;;;16.00;99.90;;;;;;5135631;27;20114;-80
2022/09/17 07:04:09;;;;;;;8.90;1.90;;;17.20;99.90;;;;;;5154590;27;20098;-79
2022/09/17 07:06:34;;;;;;;9.13;2.20;;;17.20;99.90;;;;;;5168529;27;20094;-78
2022/09/17 07:09:00;;;;;;;11.55;2.25;;;17.20;99.90;;;;;;5175074;27;20042;-78
2022/09/17 07:11:25;;;;;;;8.25;2.25;;;17.10;99.90;;;;;;5154931;27;20056;-79
2022/09/17 07:13:51;;;;;;;11.48;2.00;;;17.10;99.90;;;;;;5156571;27;20104;-79
2022/09/17 07:16:16;;;;;;;8.18;2.30;;;17.80;99.90;;;;;;5174998;27;20083;-79
2022/09/17 07:18:42;;;;;;;13.38;2.30;;;16.90;99.90;;;;;;5141121;27;20502;-79
2022/09/17 07:21:08;;;;;;;9.63;2.25;;;16.30;99.90;;;;;;5137501;27;20428;-79
2022/09/17 07:23:36;;;;;;;12.35;2.17;;;15.70;99.90;;;;;;5180750;27;20487;-79
2022/09/17 07:26:11;;;;;;;14.07;2.38;;;15.80;99.90;;;;;;5159636;27;20069;-79
2022/09/17 07:28:40;;;;;;;9.35;2.10;;;14.70;99.90;;;;;;5175468;27;20090;-79
2022/09/17 07:31:07;;;;;;;8.55;2.10;;;14.30;99.90;;;;;;5174896;27;20082;-79
2022/09/17 07:33:34;;;;;;;7.50;1.92;;;14.20;99.90;;;;;;5149786;27;20054;-79
2022/09/17 07:36:03;;;;;;;14.43;2.35;;;14.30;99.90;;;;;;5162129;27;20478;-79
2022/09/17 07:38:30;;;;;;;12.60;3.00;;;14.40;99.90;;;;;;5153867;27;20035;-79
2022/09/17 07:41:01;;;;;;;9.30;2.03;;;14.50;99.90;;;;;;5149995;27;20050;-79
2022/09/17 07:43:30;;;;;;;10.05;2.00;;;14.70;99.90;;;;;;5135200;27;20043;-79
2022/09/17 07:45:57;;;;;;;14.73;2.30;;;15.10;99.90;;;;;;5135738;27;20034;-79
2022/09/17 07:48:23;;;;;;;11.15;2.20;;;15.00;99.90;;;;;;5118456;27;20050;-79
2022/09/17 07:50:49;;;;;;;12.00;2.33;;;15.10;99.90;;;;;;5153631;27;20045;-79
2022/09/17 07:53:15;;;;;;;10.90;2.55;;;15.60;99.90;;;;;;5134619;27;20053;-79
2022/09/17 07:55:40;;;;;;;12.48;2.17;;;15.00;99.90;;;;;;5134246;27;20042;-78
2022/09/17 07:58:06;;;;;;;9.40;2.03;;;14.90;99.90;;;;;;5118051;27;20517;-77
2022/09/17 08:00:32;;;;;;;7.38;1.90;;;14.60;99.90;;;;;;5153332;27;20081;-78
2022/09/17 08:02:58;;;;;;;10.52;2.20;;;14.40;99.90;;;;;;5139202;27;20459;-77
2022/09/17 08:05:25;;;;;;;6.70;2.35;;;14.20;99.90;;;;;;5157386;27;20078;-77
2022/09/17 08:07:52;;;;;;;7.45;1.60;;;14.20;99.90;;;;;;5138907;27;20070;-78
2022/09/17 08:10:21;;;;;;;7.30;2.20;;;14.40;99.90;;;;;;5157401;27;20058;-77
2022/09/17 08:12:53;;;;;;;7.78;1.80;;;14.60;99.90;;;;;;5138443;27;20074;-77
2022/09/17 08:15:19;;;;;;;6.85;1.85;;;15.10;99.90;;;;;;5151376;27;20039;-78
2022/09/17 08:17:45;;;;;;;8.55;1.85;;;15.30;99.90;;;;;;5157275;27;20493;-78
2022/09/17 08:20:12;;;;;;;9.60;1.83;;;15.00;99.90;;;;;;5157545;27;20054;-77
2022/09/17 08:22:38;;;;;;;8.88;1.85;;;15.00;99.90;;;;;;5145124;27;20035;-78
2022/09/17 08:25:05;;;;;;;9.57;2.10;;;15.10;99.90;;;;;;5157055;27;20039;-77
2022/09/17 08:27:32;;;;;;;12.93;2.60;;;15.00;99.90;;;;;;5156777;27;20047;-80
2022/09/17 08:29:58;;;;;;;11.88;2.40;;;15.70;99.90;;;;;;5157682;27;20417;-80
2022/09/17 08:32:24;;;;;;;14.35;2.65;;;15.30;99.90;;;;;;5164102;27;20059;-79
2022/09/17 08:34:50;;;;;;;12.95;2.38;;;15.60;99.90;;;;;;5156851;27;20046;-79
2022/09/17 08:37:15;;;;;;;10.68;2.20;;;15.90;99.90;;;;;;5140802;27;20041;-79
2022/09/17 08:39:41;;;;;;;20.55;2.78;;;16.20;99.90;;;;;;5142493;27;20035;-78
2022/09/17 08:42:17;;;;;;;8.63;2.05;;;16.40;99.90;;;;;;5138615;27;20102;-78
2022/09/17 08:44:46;;;;;;;10.57;2.42;;;16.60;99.90;;;;;;5135786;27;20050;-77
2022/09/17 08:47:42;;;;;;;7.70;1.80;;;17.20;99.90;;;;;;5131902;27;20050;-77
2022/09/17 08:50:19;;;;;;;10.85;1.88;;;17.00;99.90;;;;;;5130753;27;20042;-78
2022/09/17 08:53:09;;;;;;;13.45;2.30;;;17.00;99.90;;;;;;5158857;27;20398;-78
2022/09/17 08:56:02;;;;;;;6.80;1.60;;;16.80;99.90;;;;;;5137665;27;20471;-78
2022/09/17 08:58:55;;;;;;;8.80;2.13;;;16.40;99.90;;;;;;5151798;27;20035;-79
2022/09/17 09:01:33;;;;;;;4.13;1.50;;;15.60;99.90;;;;;;5156373;27;20471;-79
2022/09/17 09:04:19;;;;;;;5.93;1.40;;;15.10;99.90;;;;;;5121165;27;20094;-79
2022/09/17 09:06:54;;;;;;;7.25;1.73;;;14.90;99.90;;;;;;5130791;27;20039;-79
2022/09/17 09:09:23;;;;;;;8.07;1.92;;;15.50;99.90;;;;;;5136065;27;20126;-79
2022/09/17 09:11:55;;;;;;;6.13;1.70;;;15.20;99.90;;;;;;5135713;27;20046;-79
2022/09/17 09:14:23;;;;;;;13.70;2.53;;;15.00;99.90;;;;;;5116597;27;20092;-79
2022/09/17 09:16:51;;;;;;;10.15;1.85;;;14.80;99.90;;;;;;5135298;27;20043;-80
2022/09/17 09:19:30;;;;;;;8.07;1.75;;;14.70;99.90;;;;;;5128255;27;20050;-80
2022/09/17 09:22:04;;;;;;;8.60;1.88;;;15.00;99.90;;;;;;5137040;27;20038;-80
2022/09/17 09:25:00;;;;;;;7.78;1.90;;;14.20;99.90;;;;;;5117065;27;20039;-80
2022/09/17 09:27:37;;;;;;;8.20;2.53;;;14.30;99.90;;;;;;5135403;27;20092;-80
2022/09/17 09:30:10;;;;;;;8.85;2.10;;;14.70;99.90;;;;;;5139030;27;20422;-80
2022/09/17 09:32:42;;;;;;;9.93;1.83;;;15.10;99.90;;;;;;5116711;27;20082;-80
2022/09/17 09:35:22;;;;;;;8.65;1.58;;;14.90;99.90;;;;;;5123319;27;20082;-78
2022/09/17 09:38:19;;;;;;;9.05;1.88;;;14.40;99.90;;;;;;5136377;27;20043;-78
2022/09/17 09:41:10;;;;;;;7.68;1.98;;;15.00;99.90;;;;;;5126602;27;20058;-79
2022/09/17 09:44:03;;;;;;;7.53;1.63;;;13.70;99.90;;;;;;5145250;27;20429;-79
2022/09/17 09:46:59;;;;;;;9.50;2.08;;;13.50;99.90;;;;;;5135274;27;20035;-79
2022/09/17 09:49:43;;;;;;;12.40;2.00;;;13.50;99.90;;;;;;5135877;27;20049;-79
2022/09/17 09:52:31;;;;;;;8.48;1.98;;;14.00;99.90;;;;;;5134954;27;20403;-79
2022/09/17 09:55:21;;;;;;;8.88;1.70;;;14.40;99.90;;;;;;5135730;27;20043;-79
2022/09/17 09:57:49;;;;;;;10.60;1.67;;;14.70;99.90;;;;;;5155325;27;20426;-79
2022/09/17 10:00:34;;;;;;;14.52;2.33;;;14.70;99.90;;;;;;5155933;27;20049;-80
2022/09/17 10:03:19;;;;;;;8.37;2.37;;;15.00;99.90;;;;;;5155780;27;20043;-79
2022/09/17 10:06:01;;;;;;;11.80;2.65;;;15.20;99.90;;;;;;5154553;27;20376;-79
2022/09/17 10:08:30;;;;;;;10.00;2.53;;;15.30;99.90;;;;;;5148286;27;20043;-79
2022/09/17 10:10:59;;;;;;;8.30;2.10;;;15.20;99.90;;;;;;5116146;27;20050;-78
2022/09/17 10:13:26;;;;;;;12.10;2.63;;;15.40;99.90;;;;;;5115804;27;20389;-76
2022/09/17 10:15:52;;;;;;;15.02;3.15;;;15.50;99.90;;;;;;5133653;27;20050;-78
2022/09/17 10:18:21;;;;;;;18.65;2.95;;;15.70;99.90;;;;;;5134472;27;20035;-78
2022/09/17 10:20:55;;;;;;;9.82;2.53;;;15.70;99.90;;;;;;5152290;27;20043;-79
2022/09/17 10:23:21;;;;;;;12.40;2.03;;;15.60;99.90;;;;;;5136684;27;20049;-79
2022/09/17 10:25:49;;;;;;;10.70;2.45;;;15.40;99.90;;;;;;5136364;27;20082;-78
2022/09/17 10:28:34;;;;;;;12.00;2.47;;;15.10;99.90;;;;;;5154947;27;20046;-79
2022/09/17 10:31:03;;;;;;;9.95;2.25;;;14.80;99.90;;;;;;5135869;27;20047;-79
2022/09/17 10:33:31;;;;;;;9.38;2.00;;;14.70;99.90;;;;;;5119289;27;20443;-78
2022/09/17 10:36:11;;;;;;;7.05;2.30;;;14.40;99.90;;;;;;5163018;27;20410;-78
2022/09/17 10:38:45;;;;;;;11.60;2.15;;;14.50;99.90;;;;;;5150871;27;20038;-79
2022/09/17 10:41:20;;;;;;;9.60;2.20;;;15.70;99.90;;;;;;5167408;27;20114;-79
2022/09/17 10:43:47;;;;;;;10.13;2.63;;;15.70;99.90;;;;;;5154771;27;20284;-79
2022/09/17 10:46:16;;;;;;;12.85;2.50;;;16.20;99.90;;;;;;5175104;27;20473;-78
2022/09/17 10:49:10;;;;;;;13.40;2.50;;;16.70;99.90;;;;;;5174687;27;20574;-79
2022/09/17 10:51:36;;;;;;;13.70;2.63;;;17.20;99.90;;;;;;5158160;27;20073;-77
2022/09/17 10:54:11;;;;;;;11.60;2.60;;;17.30;99.90;;;;;;5150825;27;20156;-77
2022/09/17 10:56:41;;;;;;;14.88;2.72;;;17.10;99.90;;;;;;5176632;27;20109;-78
2022/09/17 10:59:27;;;;;;;13.23;2.45;;;16.80;99.90;;;;;;5161350;27;20096;-78
2022/09/17 11:02:28;;;;;;;13.55;3.00;;;16.70;99.90;;;;;;5145263;27;20482;-77
2022/09/17 11:05:02;;;;;;;12.93;2.78;;;17.10;99.90;;;;;;5067386;28;20069;-78
2022/09/17 11:07:33;;;;;;;13.85;2.53;;;17.60;99.90;;;;;;5166373;27;20083;-76
2022/09/17 11:09:58;;;;;;;13.07;2.47;;;18.10;99.90;;;;;;5158096;27;20074;-76
2022/09/17 11:12:59;;;;;;;13.35;2.60;;;19.00;99.90;;;;;;5139268;27;20554;-77
2022/09/17 11:15:58;;;;;;;9.57;2.20;;;19.20;99.90;;;;;;5075269;27;20048;-78
2022/09/17 11:18:44;;;;;;;13.93;2.50;;;19.30;99.40;;;;;;5143946;27;20034;-80
2022/09/17 11:21:29;;;;;;;9.88;2.10;;;19.00;99.00;;;;;;5135953;27;20470;-78
2022/09/17 11:24:14;;;;;;;10.83;2.40;;;19.00;98.30;;;;;;5154537;27;20042;-78
2022/09/17 11:27:05;;;;;;;9.37;2.10;;;19.20;99.20;;;;;;5163994;27;20385;-78
2022/09/17 11:30:03;;;;;;;9.75;1.95;;;19.70;98.00;;;;;;5156345;27;20073;-78
2022/09/17 11:33:07;;;;;;;7.82;1.90;;;20.20;96.00;;;;;;5153502;27;20043;-80
2022/09/17 11:35:58;;;;;;;7.40;2.03;;;20.50;96.20;;;;;;5134364;27;20076;-79
2022/09/17 11:38:34;;;;;;;11.10;1.75;;;20.80;95.10;;;;;;5137183;27;20362;-79
2022/09/17 11:41:22;;;;;;;10.57;2.08;;;21.10;94.30;;;;;;5133783;27;20059;-78
2022/09/17 11:44:13;;;;;;;9.85;2.50;;;21.10;94.70;;;;;;5155793;27;20061;-77
2022/09/17 11:46:44;;;;;;;9.32;1.98;;;21.20;95.00;;;;;;5157856;27;20050;-78
2022/09/17 11:49:21;;;;;;;11.05;2.58;;;21.60;94.50;;;;;;5131029;27;20042;-77
2022/09/17 11:51:52;;;;;;;13.50;2.40;;;21.10;94.80;;;;;;5155375;27;20089;-77
2022/09/17 11:54:31;;;;;;;11.07;2.47;;;20.90;94.30;;;;;;5157113;27;20040;-78
2022/09/17 11:57:06;;;;;;;11.63;2.55;;;21.00;95.10;;;;;;5134946;27;20066;-77
2022/09/17 11:59:44;;;;;;;;;;;20.40;95.40;;;;;;5152647;27;20047;-79
2022/09/17 12:02:15;;;;;;;13.25;2.63;;;19.90;95.60;;;;;;5135514;27;19927;-79
2022/09/17 12:04:56;;;;;;;12.02;2.42;;;19.80;95.90;;;;;;5134899;27;20043;-78
2022/09/17 12:07:44;;;;;;;7.72;2.13;;;20.00;95.60;;;;;;5118648;27;20398;-79
2022/09/17 12:10:48;;;;;;;9.55;2.20;;;20.20;95.40;;;;;;5153153;27;20185;-77
2022/09/17 12:13:32;;;;;;;8.57;2.20;;;20.80;94.30;;;;;;5100535;27;20063;-79
2022/09/17 12:16:07;;;;;;;10.10;2.45;;;21.90;93.90;;;;;;5150321;27;20132;-78
2022/09/17 12:18:51;;;;;;;;;;;23.70;91.50;;;;;;5135702;27;20494;-77
2022/09/17 12:21:41;;;;;;;9.60;2.10;;;25.40;90.00;;;;;;5100605;27;20022;-78
2022/09/17 12:24:37;;;;;;;8.90;2.15;;;27.10;86.20;;;;;;5117602;27;20043;-78
2022/09/17 12:27:19;;;;;;;11.05;2.20;;;27.00;84.50;;;;;;5116672;27;20054;-78
2022/09/17 12:30:06;;;;;;;8.43;2.17;;;26.90;84.10;;;;;;5118068;27;20496;-78
2022/09/17 12:32:52;;;;;;;9.45;2.00;;;27.80;83.40;;;;;;5135064;27;20558;-78
2022/09/17 12:35:46;;;;;;;9.75;1.98;;;28.30;81.00;;;;;;5134880;27;20047;-78
2022/09/17 12:38:30;;;;;;;9.77;2.55;;;27.90;80.70;;;;;;5137010;27;20130;-78
2022/09/17 12:41:22;;;;;;;7.35;2.17;;;28.40;79.40;;;;;;5136241;27;20345;-77
2022/09/17 12:44:09;;;;;;;8.40;2.42;;;29.10;78.50;;;;;;5136292;27;20055;-78
2022/09/17 12:46:57;;;;;;;6.72;1.63;;;28.90;77.70;;;;;;5117711;27;20126;-78
2022/09/17 12:49:37;;;;;;;6.60;1.85;;;28.00;76.00;;;;;;5137098;27;20051;-78
2022/09/17 12:52:09;;;;;;;8.88;2.40;;;26.20;78.20;;;;;;5162593;27;20050;-78
2022/09/17 12:54:59;;;;;;;10.38;2.45;;;24.40;83.50;;;;;;5167136;27;20125;-78
2022/09/17 12:57:41;;;;;;;10.52;2.30;;;23.00;87.70;;;;;;5158635;27;20074;-78
2022/09/17 13:00:12;;;;;;;14.20;2.97;;;22.20;90.20;;;;;;5141453;27;20043;-78
2022/09/17 13:02:52;;;;;;;13.23;2.42;;;21.70;91.40;;;;;;5151876;27;20053;-78
2022/09/17 13:05:48;;;;;;;13.73;2.83;;;21.30;91.50;;;;;;5151374;27;20043;-78
2022/09/17 13:08:13;;;;;;;18.87;3.10;;;20.90;91.80;;;;;;5138380;27;20483;-77
2022/09/17 13:11:16;;;;;;;12.45;2.50;;;20.80;91.30;;;;;;5155780;27;20061;-78